Time;durP1;ratioP1;P1;durP2;ratioP2;P2;SDS_P1;SDS_P2;PMS_P1;PMS_P2;Temp;Humidity;BMP_temperature;BMP_pressure;BME280_temperature;BME280_humidity;BME280_pressure;Samples;Min_cycle;Max_cycle;Signal;HPM_P1;HPM_P2
2023/10/17 00:01:17;;;;;;;3.75;2.28;;;;;;;12.69;62.21;98440.00;5072582;28;20429;-47
2023/10/17 00:03:44;;;;;;;5.18;2.28;;;;;;;12.74;62.34;98438.31;5054509;28;20066;-48
2023/10/17 00:06:12;;;;;;;3.33;1.95;;;;;;;12.72;61.97;98436.94;5072476;28;20021;-48
2023/10/17 00:08:38;;;;;;;7.38;2.20;;;;;;;12.64;62.14;98442.50;5072428;28;20021;-47
2023/10/17 00:11:17;;;;;;;4.10;1.70;;;;;;;12.68;62.09;98441.03;5054405;28;20509;-48
2023/10/17 00:13:59;;;;;;;3.88;1.88;;;;;;;12.63;62.14;98446.94;5054779;28;20025;-47
2023/10/17 00:16:30;;;;;;;3.53;2.30;;;;;;;12.56;64.02;98446.22;5072238;28;20029;-47
2023/10/17 00:19:04;;;;;;;7.15;2.90;;;;;;;12.12;66.74;98442.81;5072282;28;20036;-47
2023/10/17 00:21:30;;;;;;;5.40;2.08;;;;;;;11.87;69.80;98448.84;5072204;28;20509;-47
2023/10/17 00:23:59;;;;;;;5.43;3.15;;;;;;;11.64;71.28;98444.16;5054099;28;20112;-47
2023/10/17 00:26:25;;;;;;;5.25;4.13;;;;;;;11.47;73.03;98448.31;5054343;28;20098;-47
2023/10/17 00:28:52;;;;;;;8.00;2.75;;;;;;;11.36;73.87;98455.84;5054059;28;20494;-47
2023/10/17 00:31:22;;;;;;;27.20;24.65;;;;;;;11.27;74.25;98458.91;5072075;28;20070;-48
2023/10/17 00:33:57;;;;;;;12.65;8.63;;;;;;;11.25;75.31;98458.31;5072069;28;20470;-48
2023/10/17 00:36:27;;;;;;;29.27;26.48;;;;;;;11.28;76.45;98456.09;5055431;28;20036;-47
2023/10/17 00:39:11;;;;;;;5.28;2.83;;;;;;;11.30;76.68;98453.25;5054021;28;20028;-48
2023/10/17 00:44:30;;;;;;;5.10;2.33;;;;;;;11.57;77.48;98457.34;5071879;28;20045;-47
2023/10/17 00:47:00;;;;;;;7.10;4.18;;;;;;;11.60;76.50;98459.53;5071955;28;20398;-47
2023/10/17 00:49:29;;;;;;;2.92;1.90;;;;;;;11.63;76.72;98450.44;5071858;28;20035;-47
2023/10/17 00:51:59;;;;;;;3.83;2.30;;;;;;;11.65;74.79;98451.03;5072054;28;20032;-48
2023/10/17 00:54:29;;;;;;;3.55;2.40;;;;;;;11.66;75.86;98446.56;5071740;28;20035;-48
2023/10/17 00:56:55;;;;;;;3.55;2.25;;;;;;;11.67;74.61;98449.00;5071743;28;20119;-47
2023/10/17 00:59:25;;;;;;;4.80;2.42;;;;;;;11.66;74.43;98455.25;5053531;28;20020;-47
2023/10/17 01:01:52;;;;;;;11.60;2.53;;;;;;;11.69;73.37;98441.72;5071945;28;20036;-48
2023/10/17 01:04:19;;;;;;;4.10;1.92;;;;;;;11.83;71.92;98441.59;5071269;28;20053;-47
2023/10/17 01:06:53;;;;;;;5.65;2.55;;;;;;;11.90;72.75;98440.56;5071593;28;20021;-47
2023/10/17 01:09:19;;;;;;;8.02;2.90;;;;;;;11.97;71.70;98438.69;5071698;28;20039;-47
2023/10/17 01:11:45;;;;;;;4.78;2.17;;;;;;;12.05;71.63;98436.78;5053718;28;20032;-47
2023/10/17 01:14:18;;;;;;;5.30;2.53;;;;;;;12.10;69.78;98437.75;5071613;28;20031;-47
2023/10/17 01:16:51;;;;;;;8.07;2.53;;;;;;;12.12;70.74;98437.53;5071635;28;20025;-47
2023/10/17 01:19:19;;;;;;;7.90;2.15;;;;;;;12.16;68.58;98426.38;5053533;28;20120;-47
2023/10/17 01:21:45;;;;;;;3.00;2.45;;;;;;;12.20;67.92;98424.13;5037191;28;20032;-47
2023/10/17 01:24:12;;;;;;;3.70;2.10;;;;;;;12.16;67.15;98428.19;5053343;28;20398;-47
2023/10/17 01:26:38;;;;;;;5.20;2.78;;;;;;;12.17;67.58;98429.78;5071377;28;20016;-47
2023/10/17 01:29:10;;;;;;;5.10;2.42;;;;;;;12.19;67.11;98431.22;5071473;28;20078;-47
2023/10/17 01:31:39;;;;;;;3.47;2.40;;;;;;;12.17;66.57;98435.88;5071524;28;20112;-47
2023/10/17 01:34:05;;;;;;;6.32;2.30;;;;;;;12.12;66.30;98419.94;5071346;28;20497;-47
2023/10/17 01:36:31;;;;;;;4.35;2.60;;;;;;;12.21;65.95;98430.16;5053357;28;20025;-49
2023/10/17 01:38:56;;;;;;;3.75;2.55;;;;;;;12.25;65.61;98426.88;5053474;28;20040;-50
2023/10/17 01:41:22;;;;;;;6.15;2.75;;;;;;;12.27;64.74;98414.31;5071212;28;20029;-50
2023/10/17 01:43:49;;;;;;;6.05;2.80;;;;;;;12.25;64.79;98416.34;5071259;28;20478;-50
2023/10/17 01:46:16;;;;;;;5.95;2.55;;;;;;;12.27;65.25;98416.16;5071504;28;20394;-50
2023/10/17 01:48:48;;;;;;;4.60;2.50;;;;;;;12.24;64.89;98421.84;5071274;28;20376;-50
2023/10/17 01:51:19;;;;;;;4.05;2.70;;;;;;;12.22;64.82;98426.53;5071220;28;20021;-49
2023/10/17 01:53:51;;;;;;;5.32;2.70;;;;;;;12.18;64.70;98423.53;5053259;28;20499;-50
2023/10/17 01:56:20;;;;;;;6.43;2.22;;;;;;;12.18;65.34;98426.16;5071176;28;20020;-50
2023/10/17 01:58:51;;;;;;;3.60;1.98;;;;;;;12.22;64.50;98416.00;5071179;28;20016;-50
2023/10/17 02:01:24;;;;;;;5.97;2.47;;;;;;;12.15;64.92;98416.06;5071120;28;20127;-50
2023/10/17 02:04:03;;;;;;;5.78;2.95;;;;;;;12.17;64.68;98424.53;5070862;28;20094;-50
2023/10/17 02:06:35;;;;;;;5.38;3.20;;;;;;;12.16;64.66;98423.72;5053181;28;20024;-50
2023/10/17 02:09:19;;;;;;;10.02;4.45;;;;;;;12.13;64.70;98429.44;5071425;28;20041;-50
2023/10/17 02:11:44;;;;;;;5.07;2.28;;;;;;;12.19;64.33;98422.50;5072390;28;20028;-50
2023/10/17 02:14:11;;;;;;;6.50;2.50;;;;;;;12.14;64.73;98417.88;5074650;28;20032;-50
2023/10/17 02:16:37;;;;;;;9.15;4.05;;;;;;;12.04;64.92;98428.09;5056582;28;20025;-50
2023/10/17 02:19:08;;;;;;;5.47;3.03;;;;;;;11.98;65.13;98431.59;5056838;28;20021;-49
2023/10/17 02:21:40;;;;;;;5.55;3.40;;;;;;;12.05;65.11;98434.16;5074558;28;20024;-50
2023/10/17 02:24:06;;;;;;;7.72;3.55;;;;;;;12.04;64.95;98437.81;5056482;28;20029;-49
2023/10/17 02:26:42;;;;;;;10.30;3.20;;;;;;;12.01;65.26;98433.78;5056405;28;20028;-50
2023/10/17 02:29:11;;;;;;;6.13;3.45;;;;;;;11.97;65.32;98441.31;5074368;28;20042;-50
2023/10/17 02:31:38;;;;;;;8.48;3.72;;;;;;;11.89;65.42;98425.81;5057090;28;20029;-50
2023/10/17 02:34:04;;;;;;;4.88;2.92;;;;;;;11.91;65.41;98431.66;5074552;28;20412;-50
2023/10/17 02:36:29;;;;;;;2.88;2.47;;;;;;;11.96;65.34;98437.06;5056472;28;20107;-50
2023/10/17 02:38:56;;;;;;;2.50;1.88;;;;;;;12.00;65.20;98426.91;5074235;28;20024;-50
2023/10/17 02:41:22;;;;;;;6.95;2.50;;;;;;;12.04;64.69;98425.47;5074177;28;20087;-50
2023/10/17 02:43:54;;;;;;;3.50;2.13;;;;;;;12.02;65.02;98422.25;5073976;28;20028;-50
2023/10/17 02:46:27;;;;;;;8.18;2.83;;;;;;;11.99;64.85;98412.97;5074050;28;20017;-50
2023/10/17 02:48:56;;;;;;;3.03;2.35;;;;;;;11.92;65.55;98414.03;5074070;28;20033;-50
2023/10/17 02:53:53;;;;;;;4.05;2.92;;;;;;;11.78;66.23;98429.88;5074232;28;20037;-50
2023/10/17 02:56:19;;;;;;;10.35;4.20;;;;;;;11.67;66.35;98437.66;5073872;28;20111;-50
2023/10/17 02:59:10;;;;;;;4.43;3.40;;;;;;;11.59;66.91;98447.44;5073792;28;20028;-50
2023/10/17 03:01:37;;;;;;;7.30;3.90;;;;;;;11.48;67.18;98445.47;5073765;28;20113;-49
2023/10/17 03:04:08;;;;;;;7.90;5.03;;;;;;;11.43;67.77;98442.69;5073463;28;20036;-49
2023/10/17 03:06:41;;;;;;;6.45;3.50;;;;;;;11.41;67.71;98442.09;5073704;28;20063;-50
2023/10/17 03:14:39;;;;;;;6.18;3.83;;;;;;;11.38;68.06;98432.00;5073614;28;20394;-50
2023/10/17 03:17:09;;;;;;;9.52;4.70;;;;;;;11.33;68.30;98424.75;5073556;28;20024;-50
2023/10/17 03:19:35;;;;;;;7.90;4.00;;;;;;;11.28;68.19;98419.31;5073444;28;20025;-49
2023/10/17 03:24:47;;;;;;;;;;;;;;;11.31;68.40;98404.97;5058958;28;20575;-50
2023/10/17 03:30:14;;;;;;;3.10;2.20;;;;;;;11.28;68.27;98408.00;5028533;28;19912;-50
2023/10/17 03:32:53;;;;;;;5.20;3.25;;;;;;;11.24;68.62;98401.56;5073410;28;20449;-50
2023/10/17 03:35:21;;;;;;;5.10;2.50;;;;;;;11.14;68.92;98410.69;5073130;28;20056;-50
2023/10/17 03:37:47;;;;;;;3.60;2.67;;;;;;;11.10;69.24;98408.72;5055636;28;20036;-50
2023/10/17 03:40:18;;;;;;;3.13;2.17;;;;;;;11.00;69.56;98415.22;5073202;28;20028;-50
2023/10/17 03:42:53;;;;;;;4.38;3.38;;;;;;;10.90;69.92;98425.34;5055105;28;20044;-50
2023/10/17 03:45:25;;;;;;;8.38;3.33;;;;;;;10.86;70.29;98421.53;5072860;28;20493;-50
2023/10/17 03:48:04;;;;;;;10.38;4.03;;;;;;;10.86;70.46;98421.53;5072907;28;20039;-50
2023/10/17 03:50:48;;;;;;;8.38;2.92;;;;;;;10.86;70.46;98420.75;5071559;28;20029;-50
2023/10/17 03:54:06;;;;;;;5.18;3.03;;;;;;;10.83;70.70;98423.78;5073076;28;20452;-50
2023/10/17 03:56:00;;;;;;;6.13;3.00;;;;;;;10.83;70.40;98424.59;5061728;28;20072;-50
2023/10/17 04:00:56;;;;;;;5.07;2.42;;;;;;;10.82;70.64;98416.91;5072977;28;20031;-50
2023/10/17 04:03:30;;;;;;;4.65;2.35;;;;;;;10.80;70.66;98406.63;5072327;28;20102;-50
2023/10/17 04:08:37;;;;;;;6.07;2.45;;;;;;;10.83;70.95;98410.69;5072876;28;20032;-50
2023/10/17 04:13:54;;;;;;;2.97;2.67;;;;;;;10.90;70.31;98406.97;5072456;28;20405;-50
2023/10/17 04:16:33;;;;;;;6.38;2.85;;;;;;;10.93;70.46;98408.41;5054401;28;20039;-50
2023/10/17 04:19:00;;;;;;;7.00;4.03;;;;;;;10.96;70.04;98407.97;5072342;28;20100;-50
2023/10/17 04:21:28;;;;;;;2.75;1.70;;;;;;;11.04;69.70;98406.94;5072094;28;20498;-50
2023/10/17 04:23:55;;;;;;;3.50;2.25;;;;;;;11.15;69.27;98408.91;5072177;28;20158;-50
2023/10/17 04:26:27;;;;;;;3.80;2.63;;;;;;;11.17;69.04;98405.03;5072081;28;20020;-50
2023/10/17 04:29:13;;;;;;;2.42;1.70;;;;;;;11.15;69.04;98407.06;5072194;28;20036;-50
2023/10/17 04:31:47;;;;;;;5.85;3.00;;;;;;;11.11;69.18;98405.09;5072214;28;20062;-50
2023/10/17 04:34:21;;;;;;;7.10;2.92;;;;;;;11.07;69.56;98406.53;5071674;28;20044;-50
2023/10/17 04:36:56;;;;;;;2.90;2.20;;;;;;;11.09;69.40;98405.28;5054080;28;20421;-50
2023/10/17 04:44:21;;;;;;;3.50;2.28;;;;;;;11.24;68.66;98396.31;5072174;28;20024;-50
2023/10/17 04:46:51;;;;;;;3.38;2.30;;;;;;;11.23;69.10;98397.31;5071918;28;20025;-50
2023/10/17 04:49:21;;;;;;;6.40;3.08;;;;;;;11.26;68.82;98392.44;5072123;28;20060;-50
2023/10/17 04:51:53;;;;;;;5.32;2.75;;;;;;;11.45;68.06;98398.59;5071803;28;20024;-50
2023/10/17 04:54:38;;;;;;;5.68;3.75;;;;;;;11.54;68.08;98401.78;5071781;28;20028;-50
2023/10/17 04:57:18;;;;;;;7.57;3.47;;;;;;;11.66;67.47;98405.31;5071857;28;20031;-50
2023/10/17 05:05:39;;;;;;;7.40;2.05;;;;;;;11.73;66.70;98387.69;5053886;28;20117;-50
2023/10/17 06:18:56;;;;;;;7.70;4.60;;;;;;;11.27;69.14;98401.94;5074702;28;20143;-50
2023/10/17 06:21:35;;;;;;;6.03;4.40;;;;;;;11.31;69.12;98397.88;5074516;28;20028;-50
2023/10/17 06:27:11;;;;;;;8.18;4.85;;;;;;;11.39;69.06;98399.47;5059574;28;20050;-50
2023/10/17 06:32:16;;;;;;;6.85;4.10;;;;;;;11.58;67.94;98413.47;5074339;28;20111;-50
2023/10/17 06:34:44;;;;;;;6.63;3.97;;;;;;;11.63;67.98;98415.44;5074412;28;20107;-50
2023/10/17 06:37:19;;;;;;;4.40;3.30;;;;;;;11.69;67.86;98418.03;5074191;28;20028;-49
2023/10/17 06:39:48;;;;;;;5.97;3.00;;;;;;;11.75;67.22;98419.81;5074337;28;20055;-50
2023/10/17 06:42:14;;;;;;;11.88;3.50;;;;;;;11.96;67.02;98410.75;5074427;28;20129;-50
2023/10/17 06:44:54;;;;;;;11.60;4.57;;;;;;;12.30;66.27;98413.88;5056267;28;20021;-50
2023/10/17 06:47:31;;;;;;;8.30;3.38;;;;;;;12.73;64.34;98422.75;5058131;28;20017;-50
2023/10/17 06:52:40;;;;;;;4.05;3.20;;;;;;;13.53;61.24;98421.72;5074265;28;20470;-49
2023/10/17 06:55:07;;;;;;;9.90;4.78;;;;;;;13.42;61.19;98419.84;5073965;28;20529;-47
2023/10/17 06:57:36;;;;;;;8.10;3.95;;;;;;;13.44;60.97;98423.06;5073846;28;20024;-47
2023/10/17 07:02:49;;;;;;;10.50;3.43;;;;;;;13.45;60.80;98416.78;5074176;28;20043;-47
2023/10/17 07:05:21;;;;;;;7.35;3.58;;;;;;;13.53;60.35;98408.53;5073473;28;20044;-47
2023/10/17 07:07:52;;;;;;;7.40;3.08;;;;;;;13.79;59.79;98413.38;5073707;28;20036;-47
2023/10/17 07:10:37;;;;;;;9.48;3.85;;;;;;;14.04;59.37;98419.50;5073673;28;20028;-47
2023/10/17 07:13:41;;;;;;;3.70;2.55;;;;;;;14.41;57.51;98412.13;5073657;28;20029;-47
2023/10/17 07:16:25;;;;;;;6.28;3.92;;;;;;;14.62;56.95;98412.59;5073428;28;20024;-47
2023/10/17 07:18:55;;;;;;;5.63;3.95;;;;;;;14.80;56.36;98425.63;5073473;28;20029;-47
2023/10/17 07:21:24;;;;;;;7.80;3.95;;;;;;;15.10;55.27;98425.41;5073424;28;20098;-47
2023/10/17 07:23:54;;;;;;;6.88;3.40;;;;;;;15.12;54.66;98417.25;5073276;28;20107;-47
2023/10/17 07:28:56;;;;;;;4.85;3.75;;;;;;;15.18;54.48;98418.97;5073340;28;20042;-47
2023/10/17 07:31:22;;;;;;;5.25;3.55;;;;;;;15.00;54.92;98412.00;5055254;28;20517;-47
2023/10/17 07:36:34;;;;;;;7.82;4.88;;;;;;;14.65;56.56;98418.22;5073178;28;20031;-47
2023/10/17 07:39:06;;;;;;;6.45;3.40;;;;;;;14.63;56.40;98419.47;5073097;28;20028;-47
2023/10/17 07:41:38;;;;;;;9.80;4.38;;;;;;;14.85;56.32;98415.19;5072977;28;20046;-47
2023/10/17 07:44:21;;;;;;;5.35;3.45;;;;;;;15.13;55.27;98418.84;5072987;28;20504;-47
2023/10/17 07:46:50;;;;;;;6.38;2.78;;;;;;;15.31;54.91;98412.56;5073018;28;20024;-47
2023/10/17 07:49:26;;;;;;;6.57;4.22;;;;;;;15.47;54.25;98416.28;5055129;28;20025;-47
2023/10/17 07:51:54;;;;;;;13.18;4.60;;;;;;;15.72;53.33;98424.66;5054947;28;20029;-47
2023/10/17 07:54:28;;;;;;;9.88;4.65;;;;;;;15.90;53.24;98422.84;5072771;28;20051;-47
2023/10/17 07:56:55;;;;;;;7.68;4.13;;;;;;;16.23;52.10;98416.69;5072721;28;20131;-47
2023/10/17 07:59:30;;;;;;;5.40;4.10;;;;;;;16.78;50.97;98412.34;5055119;28;20020;-47
2023/10/17 08:02:00;;;;;;;6.30;3.92;;;;;;;17.30;49.28;98403.13;5072542;28;20028;-47
2023/10/17 08:04:33;;;;;;;7.88;3.65;;;;;;;17.36;48.80;98405.59;5072259;28;20054;-47
2023/10/17 08:06:59;;;;;;;9.38;4.63;;;;;;;17.82;48.71;98407.81;5072491;28;20086;-48
2023/10/17 08:09:35;;;;;;;8.85;3.70;;;;;;;18.49;46.54;98397.63;5071830;28;20052;-47
2023/10/17 08:12:03;;;;;;;5.07;3.90;;;;;;;18.79;45.51;98396.97;5072360;28;20446;-47
2023/10/17 08:14:37;;;;;;;7.28;2.80;;;;;;;19.44;43.73;98384.06;5072409;28;20580;-47
2023/10/17 08:17:04;;;;;;;8.30;3.80;;;;;;;19.59;42.87;98387.81;5072371;28;20023;-47
2023/10/17 08:19:35;;;;;;;3.53;2.33;;;;;;;20.10;41.72;98390.44;5072303;28;20398;-47
2023/10/17 08:24:34;;;;;;;5.38;4.00;;;;;;;20.41;40.48;98382.38;5072241;28;20569;-47
2023/10/17 08:27:13;;;;;;;7.97;2.80;;;;;;;20.55;40.09;98378.06;5054483;28;20095;-47
2023/10/17 08:29:48;;;;;;;11.43;3.45;;;;;;;20.51;40.74;98375.13;5054208;28;20032;-47
2023/10/17 08:34:48;;;;;;;8.38;4.20;;;;;;;18.74;47.44;98394.28;5055162;28;20037;-47
2023/10/17 08:37:27;;;;;;;6.30;3.65;;;;;;;17.03;52.74;98387.22;5072060;28;20013;-47
2023/10/17 08:39:53;;;;;;;9.50;3.42;;;;;;;16.06;55.12;98387.59;5071996;28;20043;-48
2023/10/17 08:42:30;;;;;;;10.77;4.05;;;;;;;15.41;58.78;98388.94;5072005;28;20013;-48
2023/10/17 08:45:02;;;;;;;13.30;6.05;;;;;;;15.29;59.84;98385.56;5071933;28;20028;-47
2023/10/17 08:47:32;;;;;;;7.40;3.90;;;;;;;15.60;59.68;98388.72;5071956;28;20060;-47
2023/10/17 08:50:04;;;;;;;9.45;3.47;;;;;;;16.41;55.71;98383.84;5053922;28;20074;-48
2023/10/17 08:52:37;;;;;;;9.60;7.18;;;;;;;17.00;53.96;98379.75;5053956;28;20089;-47
2023/10/17 08:55:04;;;;;;;7.75;3.53;;;;;;;17.19;52.17;98382.88;5071772;28;20032;-47
2023/10/17 08:57:31;;;;;;;4.90;3.60;;;;;;;17.76;50.80;98383.06;5072052;28;20090;-47
2023/10/17 09:02:35;;;;;;;5.20;2.80;;;;;;;18.95;47.10;98380.03;5055711;28;20472;-48
2023/10/17 09:05:25;;;;;;;9.43;5.63;;;;;;;19.43;46.41;98373.69;5033796;28;20104;-47
2023/10/17 09:07:55;;;;;;;11.70;5.82;;;;;;;20.19;44.24;98370.16;5030495;28;20037;-47
2023/10/17 09:10:38;;;;;;;13.90;5.97;;;;;;;20.83;42.67;98373.16;5032063;28;20075;-47
2023/10/17 09:15:57;;;;;;;10.98;6.60;;;;;;;21.76;40.34;98362.63;5017210;28;20458;-45
2023/10/17 09:18:40;;;;;;;12.60;5.15;;;;;;;21.97;39.43;98363.22;5031746;28;20026;-45
2023/10/17 09:21:06;;;;;;;8.27;5.25;;;;;;;21.96;38.79;98357.09;5033780;28;20036;-45
2023/10/17 09:23:32;;;;;;;10.35;3.70;;;;;;;21.96;38.29;98357.09;5034431;28;20045;-45
2023/10/17 09:26:07;;;;;;;10.32;3.35;;;;;;;21.82;38.94;98353.50;5035530;28;20488;-45
2023/10/17 09:28:33;;;;;;;;;;;;;;;21.80;38.22;98347.63;5036172;28;20025;-46
2023/10/17 09:31:06;;;;;;;4.88;2.80;;;;;;;21.59;38.73;98355.84;5035843;28;20078;-46
2023/10/17 09:33:33;;;;;;;6.10;3.00;;;;;;;21.76;39.02;98355.41;5035863;28;20127;-46
2023/10/17 09:36:04;;;;;;;6.95;3.67;;;;;;;22.00;37.87;98344.75;5035582;28;20029;-46
2023/10/17 09:38:46;;;;;;;4.90;3.03;;;;;;;22.49;37.60;98342.88;5034351;28;20491;-46
2023/10/17 09:41:19;;;;;;;6.32;2.90;;;;;;;23.04;36.58;98353.13;5034166;28;20095;-46
2023/10/17 09:43:53;;;;;;;5.57;2.42;;;;;;;23.11;36.11;98346.34;5035290;28;20037;-46
2023/10/17 09:46:26;;;;;;;2.80;1.98;;;;;;;22.57;37.02;98350.25;5034026;28;20039;-46
2023/10/17 09:48:53;;;;;;;8.35;2.90;;;;;;;22.44;37.49;98348.31;5033998;28;20392;-45
2023/10/17 09:51:25;;;;;;;5.20;2.55;;;;;;;23.01;37.19;98351.03;5035258;28;20107;-45
2023/10/17 09:53:58;;;;;;;6.50;2.63;;;;;;;23.48;35.81;98333.16;5035215;28;20041;-46
2023/10/17 09:56:45;;;;;;;11.50;2.72;;;;;;;23.46;35.71;98336.16;5033830;28;20545;-45
2023/10/17 09:59:20;;;;;;;5.50;2.45;;;;;;;22.82;36.47;98332.28;5033771;28;20072;-46
2023/10/17 10:01:49;;;;;;;5.22;2.40;;;;;;;22.66;37.10;98339.75;5035132;28;20052;-45
2023/10/17 10:04:17;;;;;;;6.50;2.10;;;;;;;22.82;37.05;98330.41;5054871;28;20045;-46
2023/10/17 10:06:43;;;;;;;6.90;2.35;;;;;;;22.62;37.34;98334.16;5074881;28;20039;-45
2023/10/17 10:09:14;;;;;;;5.25;2.20;;;;;;;22.46;37.88;98332.78;5074787;28;20024;-46
2023/10/17 10:11:49;;;;;;;4.90;1.90;;;;;;;22.69;37.33;98329.25;5074997;28;20032;-46
2023/10/17 10:14:36;;;;;;;5.13;2.22;;;;;;;22.70;37.68;98327.38;5074623;28;20032;-46
2023/10/17 10:17:05;;;;;;;10.27;2.83;;;;;;;22.15;38.10;98335.75;5074706;28;20398;-46
2023/10/17 10:19:40;;;;;;;3.30;2.20;;;;;;;21.81;39.10;98317.16;5074568;28;20502;-46
2023/10/17 10:22:07;;;;;;;4.53;2.72;;;;;;;21.93;39.59;98326.41;5056524;28;20407;-46
2023/10/17 10:24:36;;;;;;;6.05;2.50;;;;;;;22.49;38.09;98327.63;5074470;28;20025;-46
2023/10/17 10:27:16;;;;;;;7.07;3.08;;;;;;;22.88;37.72;98321.22;5056439;28;20102;-46
2023/10/17 10:29:52;;;;;;;6.60;2.42;;;;;;;23.05;37.16;98315.38;5056462;28;20410;-45
2023/10/17 10:32:42;;;;;;;5.00;2.70;;;;;;;23.24;36.97;98318.03;5073679;28;20086;-46
2023/10/17 10:35:08;;;;;;;3.97;2.30;;;;;;;23.35;36.63;98317.88;5074331;28;20107;-46
2023/10/17 10:37:54;;;;;;;8.30;2.65;;;;;;;23.41;36.63;98319.38;5074298;28;20554;-46
2023/10/17 10:40:26;;;;;;;7.28;2.97;;;;;;;23.46;37.00;98320.09;5056265;28;20497;-45
2023/10/17 10:42:58;;;;;;;5.75;2.42;;;;;;;23.48;36.50;98314.41;5057035;28;20032;-46
2023/10/17 10:45:29;;;;;;;4.30;2.60;;;;;;;23.15;37.08;98319.78;5056523;28;20054;-46
2023/10/17 10:47:57;;;;;;;3.85;2.42;;;;;;;23.01;37.75;98316.22;5074414;28;20025;-46
2023/10/17 10:50:30;;;;;;;4.57;2.53;;;;;;;22.99;37.43;98305.81;5073973;28;20021;-46
2023/10/17 10:52:59;;;;;;;7.68;2.80;;;;;;;23.35;37.32;98307.94;5074006;28;20410;-46
2023/10/17 10:55:25;;;;;;;4.07;2.35;;;;;;;24.06;35.61;98305.09;5056454;28;20028;-46
2023/10/17 10:57:52;;;;;;;4.97;1.98;;;;;;;24.09;35.38;98291.09;5055883;28;20024;-46
2023/10/17 11:00:18;;;;;;;5.15;2.33;;;;;;;23.71;35.87;98281.31;5073869;28;20443;-46
2023/10/17 11:02:43;;;;;;;5.35;1.98;;;;;;;23.64;36.31;98280.13;5073815;28;20054;-46
2023/10/17 11:05:13;;;;;;;13.70;2.88;;;;;;;23.79;37.07;98273.72;5055441;28;20037;-46
2023/10/17 11:07:39;;;;;;;9.80;3.00;;;;;;;23.96;36.26;98278.50;5073754;28;20052;-46
2023/10/17 11:10:06;;;;;;;4.32;2.03;;;;;;;23.82;36.30;98281.94;5073699;28;20017;-46
2023/10/17 11:12:36;;;;;;;10.10;3.80;;;;;;;23.53;36.53;98266.13;5055751;28;20115;-46
2023/10/17 11:15:16;;;;;;;5.05;2.28;;;;;;;23.67;37.00;98266.94;5073486;28;20028;-46
2023/10/17 11:17:43;;;;;;;4.53;2.38;;;;;;;23.69;36.63;98262.06;5073828;28;20089;-46
2023/10/17 11:20:17;;;;;;;4.30;2.58;;;;;;;23.47;37.06;98257.38;5073498;28;20051;-46
2023/10/17 11:22:44;;;;;;;9.93;4.38;;;;;;;23.43;37.55;98258.28;5056682;28;20115;-46
2023/10/17 11:28:07;;;;;;;7.70;3.00;;;;;;;24.86;36.03;98258.06;5059786;28;20052;-46
2023/10/17 11:30:42;;;;;;;5.35;2.38;;;;;;;25.35;34.17;98252.06;5054920;28;20422;-46
2023/10/17 11:33:28;;;;;;;7.32;5.05;;;;;;;25.62;34.29;98246.50;5056257;28;20506;-46
2023/10/17 11:36:03;;;;;;;3.53;2.47;;;;;;;25.91;32.81;98248.69;5073113;28;20090;-47
2023/10/17 11:38:37;;;;;;;6.63;2.38;;;;;;;25.79;32.88;98247.69;5073179;28;20028;-47
2023/10/17 11:41:04;;;;;;;9.25;2.38;;;;;;;25.47;33.26;98242.34;5073049;28;20074;-46
2023/10/17 11:43:42;;;;;;;9.13;2.17;;;;;;;25.02;34.04;98238.91;5072331;28;20498;-46
2023/10/17 11:46:14;;;;;;;3.33;2.08;;;;;;;24.74;34.56;98236.34;5055409;28;20056;-48
2023/10/17 11:48:48;;;;;;;5.55;2.20;;;;;;;24.68;34.61;98234.88;5072948;28;20025;-47
2023/10/17 11:51:17;;;;;;;10.85;3.00;;;;;;;24.64;34.67;98228.53;5072940;28;20016;-46
2023/10/17 11:54:22;;;;;;;13.77;3.90;;;;;;;24.84;34.32;98228.03;5054821;28;20036;-47
2023/10/17 11:56:48;;;;;;;3.03;2.33;;;;;;;24.74;34.43;98225.59;4991168;28;20396;-47
2023/10/17 11:59:20;;;;;;;43.95;5.82;;;;;;;24.68;34.99;98219.56;4991219;28;20034;-47
2023/10/17 12:01:52;;;;;;;15.18;3.35;;;;;;;24.55;35.09;98209.69;4991112;28;20026;-47
2023/10/17 12:04:19;;;;;;;3.88;2.20;;;;;;;24.37;34.90;98208.72;4990785;28;20389;-47
2023/10/17 12:06:48;;;;;;;9.80;2.53;;;;;;;24.44;35.51;98214.44;4991037;28;20032;-47
2023/10/17 12:09:17;;;;;;;5.75;2.38;;;;;;;24.58;35.14;98209.06;4991104;28;20061;-46
2023/10/17 12:11:47;;;;;;;6.80;2.17;;;;;;;25.09;35.05;98201.66;4990880;28;20092;-47
2023/10/17 12:14:19;;;;;;;5.85;2.25;;;;;;;25.67;33.86;98200.66;4990974;28;20038;-47
2023/10/17 12:16:58;;;;;;;17.58;2.72;;;;;;;25.57;34.03;98206.31;4990894;28;20093;-47
2023/10/17 12:19:26;;;;;;;6.57;2.00;;;;;;;25.25;34.46;98194.84;4990934;28;20401;-47
2023/10/17 12:22:00;;;;;;;4.35;1.95;;;;;;;25.27;34.25;98192.63;4990722;28;20067;-48
2023/10/17 12:24:34;;;;;;;4.95;1.95;;;;;;;24.95;34.39;98198.25;4990689;28;20049;-47
2023/10/17 12:27:02;;;;;;;5.45;2.50;;;;;;;24.91;35.36;98182.78;4990755;28;20066;-47
2023/10/17 12:29:29;;;;;;;5.20;2.38;;;;;;;25.30;34.16;98188.53;4990645;28;20519;-47
2023/10/17 12:31:59;;;;;;;7.88;2.33;;;;;;;25.20;34.62;98186.88;5071988;28;20016;-47
2023/10/17 12:34:27;;;;;;;8.75;2.28;;;;;;;25.33;34.26;98181.75;5054090;28;20032;-47
2023/10/17 12:36:52;;;;;;;6.20;2.00;;;;;;;25.06;34.45;98170.84;5071931;28;20040;-47
2023/10/17 12:39:18;;;;;;;9.05;2.13;;;;;;;24.80;35.46;98172.59;5054032;28;20031;-47
2023/10/17 12:41:46;;;;;;;15.75;3.17;;;;;;;24.81;35.75;98166.94;5071883;28;20024;-46
2023/10/17 12:44:12;;;;;;;13.00;2.70;;;;;;;24.70;35.63;98155.66;5071768;28;20029;-47
2023/10/17 12:46:39;;;;;;;6.25;2.40;;;;;;;24.41;36.02;98161.41;5053851;28;20119;-47
2023/10/17 12:49:06;;;;;;;6.15;1.92;;;;;;;24.32;36.50;98147.94;5054054;28;20055;-47
2023/10/17 12:51:32;;;;;;;4.78;2.28;;;;;;;24.26;36.90;98146.47;5071800;28;20025;-47
2023/10/17 12:53:58;;;;;;;3.47;1.88;;;;;;;24.29;36.57;98150.44;5053832;28;20032;-47
2023/10/17 12:56:27;;;;;;;9.68;2.50;;;;;;;24.13;36.92;98144.63;5071513;28;20025;-47
2023/10/17 12:58:53;;;;;;;7.13;2.13;;;;;;;23.86;37.23;98138.22;5071845;28;20083;-47
2023/10/17 13:01:24;;;;;;;6.97;2.00;;;;;;;23.53;38.18;98129.53;5071929;28;20104;-47
2023/10/17 13:03:53;;;;;;;4.55;2.00;;;;;;;23.52;38.36;98131.41;5071487;28;20122;-47
2023/10/17 13:06:25;;;;;;;7.28;2.88;;;;;;;23.49;38.21;98131.22;5071969;28;20048;-47
2023/10/17 13:08:56;;;;;;;6.22;2.10;;;;;;;23.65;38.59;98132.47;5071973;28;20457;-47
2023/10/17 13:11:26;;;;;;;8.15;2.42;;;;;;;23.75;38.22;98119.97;5071720;28;20029;-47
2023/10/17 13:13:53;;;;;;;5.65;1.95;;;;;;;23.85;38.18;98122.47;5071609;28;20086;-47
2023/10/17 13:16:23;;;;;;;3.67;1.90;;;;;;;24.02;38.20;98119.91;5071624;28;20021;-48
2023/10/17 13:18:50;;;;;;;6.30;2.92;;;;;;;24.20;37.60;98118.19;5071609;28;20044;-47
2023/10/17 13:21:17;;;;;;;4.63;2.40;;;;;;;23.98;37.84;98116.25;5071519;28;20035;-47
2023/10/17 13:23:46;;;;;;;9.27;2.70;;;;;;;23.91;38.08;98115.91;5071459;28;20105;-47
2023/10/17 13:26:14;;;;;;;7.68;2.67;;;;;;;23.91;37.89;98108.66;5071705;28;20025;-47
2023/10/17 13:28:41;;;;;;;4.60;1.90;;;;;;;23.70;38.04;98110.13;5071459;28;20028;-47
2023/10/17 13:31:16;;;;;;;6.63;2.50;;;;;;;23.43;38.76;98106.41;5071541;28;20044;-47
2023/10/17 13:33:43;;;;;;;9.23;2.67;;;;;;;23.47;39.12;98106.63;5054116;28;20035;-47
2023/10/17 13:36:16;;;;;;;7.28;2.22;;;;;;;23.55;38.95;98107.81;5071706;28;20024;-47
2023/10/17 13:38:43;;;;;;;7.20;2.30;;;;;;;23.63;39.30;98096.38;5071465;28;20033;-47
2023/10/17 13:41:10;;;;;;;6.30;2.42;;;;;;;23.58;38.71;98091.91;5071455;28;20116;-47
2023/10/17 13:43:38;;;;;;;4.28;2.40;;;;;;;23.37;39.28;98104.16;5071476;28;20021;-47
2023/10/17 13:46:22;;;;;;;3.78;2.20;;;;;;;23.06;39.75;98105.53;5071568;28;20393;-46
2023/10/17 13:48:50;;;;;;;5.93;2.47;;;;;;;22.78;40.65;98095.81;5071355;28;20028;-46
2023/10/17 13:51:17;;;;;;;8.98;3.30;;;;;;;22.82;41.15;98096.81;5053298;28;20029;-47
2023/10/17 13:53:46;;;;;;;13.35;2.72;;;;;;;22.82;40.63;98094.16;5071540;28;20444;-46
2023/10/17 13:56:20;;;;;;;5.15;2.03;;;;;;;23.00;40.76;98095.16;5071260;28;20107;-46
2023/10/17 13:58:49;;;;;;;5.57;2.40;;;;;;;22.92;40.45;98097.44;5071257;28;20028;-47
2023/10/17 14:01:33;;;;;;;5.90;2.80;;;;;;;22.76;40.95;98092.66;5071414;28;20325;-46
2023/10/17 14:04:01;;;;;;;7.32;2.47;;;;;;;22.80;41.20;98099.81;5070845;28;20055;-47
2023/10/17 14:06:38;;;;;;;9.13;2.33;;;;;;;22.93;41.37;98099.03;5071134;28;20029;-47